Grand Breaker — V7XF9 — position and weather

sailwx.info

Track history (hours):
 
Tides and Currents Weather Stations Pressure Air Temp Water Temp Dewpoint Dewpoint Depression Visibility Wind Speed Wind Dir Waves Ship Positions

Grand Breaker

Last reported at 2017-Sep-13 21:29 UTC. Time now 2017-Sep-25 06:20 UTC.
Position N 03°57' W 002°49'.
Warning: this ship's position is 11 days out of date.

Length 190 m; draft 6.9 m.

Type: Cargo ship. MMSI: 538004469.

Date/timePositionNaut miles runAvg speedWind from/ knotsBaromVisibWave heightAir tempDewpointWater temp
2017-Sep-13 21:29N 03°57' W 002°49'510.8
2017-Sep-13 20:59N 03°59' W 002°44'611.5
2017-Sep-13 20:29N 04°03' W 002°39'611.6
2017-Sep-13 20:00N 04°06' W 002°35'611.7
2017-Sep-13 19:31N 04°10' W 002°31'612.1
2017-Sep-13 19:00N 04°14' W 002°26'612.1
2017-Sep-13 18:30N 04°18' W 002°21'  
2017-Sep-11 00:35N 04°53' W 001°44'0 0.0
2017-Sep-11 00:17N 04°53' W 001°44'0 0.0
2017-Sep-10 23:20N 04°53' W 001°44'0 0.0
2017-Sep-10 19:44N 04°53' W 001°44'0 0.0
2017-Sep-10 19:20N 04°53' W 001°44'0 0.0
2017-Sep-09 17:40N 04°53' W 001°44'0 0.0
2017-Sep-09 17:29N 04°53' W 001°44'0 0.7
2017-Sep-09 16:57N 04°53' W 001°44'1 2.8
2017-Sep-09 16:30N 04°54' W 001°43'2 5.0
2017-Sep-09 16:00N 04°55' W 001°41'3 6.7
2017-Sep-09 15:30N 04°53' W 001°38'4 7.4
2017-Sep-09 15:00N 04°51' W 001°35'510.2
2017-Sep-09 14:29N 04°50' W 001°30'713.3
2017-Sep-09 13:59N 04°51' W 001°23'613.3
2017-Sep-09 13:30N 04°52' W 001°17'713.3
2017-Sep-09 12:59N 04°54' W 001°10'6213.4
2017-Sep-09 08:20N 05°16' W 000°12'513.6
2017-Sep-09 08:01N 05°19' W 000°08'713.4
2017-Sep-09 07:30N 05°23' W 000°03'713.1
2017-Sep-09 07:00N 05°26' E 000°03'510.6
2017-Sep-09 06:30N 05°31' E 000°06'1 1.9
2017-Sep-09 05:59N 05°31' E 000°07'0 0.9
2017-Sep-09 05:29N 05°31' E 000°07'0 0.9
2017-Sep-09 04:59N 05°30' E 000°07'0 0.4
2017-Sep-09 04:29N 05°30' E 000°07'1 2.1
2017-Sep-09 04:00N 05°31' E 000°06'3 5.8
2017-Sep-09 03:30N 05°34' E 000°06'3 6.3
2017-Sep-09 03:00N 05°36' E 000°03'3 5.3
2017-Sep-09 02:30N 05°38' E 000°01'0 0.6
2017-Sep-09 01:59N 05°38' E 000°01'0 0.0
2017-Sep-09 01:29N 05°38' E 000°01'0 0.0
2017-Sep-09 00:59N 05°38' E 000°01'0 0.0
2017-Sep-09 00:29N 05°38' E 000°01'0 0.0
2017-Sep-08 23:59N 05°38' E 000°01'0 0.0
2017-Sep-08 23:29N 05°38' E 000°01'0 0.0
2017-Sep-08 22:59N 05°38' E 000°01'0 0.0
2017-Sep-08 22:29N 05°38' E 000°01'0 0.0
2017-Sep-08 21:59N 05°38' E 000°01'0 0.0
2017-Sep-08 21:29N 05°38' E 000°01'0 0.0
2017-Sep-08 20:59N 05°38' E 000°01'0 0.0
2017-Sep-08 20:29N 05°38' E 000°01'0 0.0
2017-Sep-08 19:59N 05°38' E 000°01'0 0.0
2017-Sep-08 19:29N 05°38' E 000°01'0 0.0
2017-Sep-08 18:59N 05°38' E 000°01'0 0.0
2017-Sep-08 18:29N 05°38' E 000°01'0 0.0
2017-Sep-08 17:59N 05°38' E 000°01'0 0.0
2017-Sep-08 17:29N 05°38' E 000°01'0 0.0
2017-Sep-08 16:59N 05°38' E 000°01'0 0.0
2017-Sep-08 16:29N 05°38' E 000°01'0 0.0
2017-Sep-08 15:59N 05°38' E 000°01'0 0.0
2017-Sep-08 15:29N 05°38' E 000°01'0 0.0
2017-Sep-08 14:56N 05°38' E 000°01'0 0.0
2017-Sep-08 14:29N 05°38' E 000°01'0 0.0
2017-Sep-08 13:59N 05°38' E 000°01'0 0.0
2017-Sep-08 13:29N 05°38' E 000°01'0 0.0
2017-Sep-08 12:32N 05°38' E 000°01'0 0.0
2017-Sep-08 12:29N 05°38' E 000°01'0 0.0
2017-Sep-08 11:59N 05°38' E 000°01'0 0.0
2017-Sep-08 11:29N 05°38' E 000°01'0 0.0
2017-Sep-08 10:59N 05°38' E 000°01'0 0.0
2017-Sep-08 10:29N 05°38' E 000°01'0 0.0
2017-Sep-08 09:59N 05°38' E 000°01'0 0.0
2017-Sep-08 09:29N 05°38' E 000°01'0 0.0
2017-Sep-08 08:59N 05°38' E 000°01'0 0.0
2017-Sep-08 08:29N 05°38' E 000°01'0 0.0
2017-Sep-08 07:59N 05°38' E 000°01'0 0.0
2017-Sep-08 07:29N 05°38' E 000°01'0 0.0
2017-Sep-08 06:59N 05°38' E 000°01'0 0.0
2017-Sep-08 06:29N 05°38' E 000°01'0 0.0
2017-Sep-08 05:59N 05°38' E 000°01'0 0.0
2017-Sep-08 05:29N 05°38' E 000°01'0 0.0
2017-Sep-08 04:59N 05°38' E 000°01'0 0.0
2017-Sep-08 04:29N 05°38' E 000°01'0 0.0
2017-Sep-08 03:59N 05°38' E 000°01'0 0.0
2017-Sep-08 03:29N 05°38' E 000°01'0 0.0
2017-Sep-08 02:59N 05°38' E 000°01'0 0.0
2017-Sep-08 02:29N 05°38' E 000°01'0 0.0
2017-Sep-08 01:59N 05°38' E 000°01'0 0.0
2017-Sep-08 01:29N 05°38' E 000°01'0 0.0
2017-Sep-08 00:59N 05°38' E 000°01'0 0.0
2017-Sep-08 00:29N 05°38' E 000°01'0 0.0
2017-Sep-07 23:59N 05°38' E 000°01'0 0.0
2017-Sep-07 23:26N 05°38' E 000°01'0 0.0
2017-Sep-07 22:59N 05°38' E 000°01'0 0.0
2017-Sep-07 22:29N 05°38' E 000°01'0 0.0
2017-Sep-07 21:59N 05°38' E 000°01'0 0.0
2017-Sep-07 21:29N 05°38' E 000°01'0 0.0
2017-Sep-07 20:59N 05°38' E 000°01'0 0.0
2017-Sep-07 20:29N 05°38' E 000°01'0 0.0
2017-Sep-07 19:59N 05°38' E 000°01'0 0.0
2017-Sep-07 19:29N 05°38' E 000°01'0 0.0
2017-Sep-07 18:59N 05°38' E 000°01'0 0.0
2017-Sep-07 18:29N 05°38' E 000°01'0 0.0
2017-Sep-07 17:59N 05°38' E 000°01'0 0.0
2017-Sep-07 17:29N 05°38' E 000°01'0 0.0
2017-Sep-07 16:59N 05°38' E 000°01'0 0.0
2017-Sep-07 16:29N 05°38' E 000°01'0 0.0
2017-Sep-07 15:59N 05°38' E 000°01'0 0.0
2017-Sep-07 15:29N 05°38' E 000°01'0 0.0
2017-Sep-07 14:59N 05°38' E 000°01'0 0.0
2017-Sep-07 14:29N 05°38' E 000°01'0 0.0
2017-Sep-07 13:56N 05°38' E 000°01'0 0.0
2017-Sep-07 13:29N 05°38' E 000°01'0 0.0
2017-Sep-07 12:59N 05°38' E 000°01'0 0.0
2017-Sep-07 12:29N 05°38' E 000°01'0 0.0
2017-Sep-07 11:59N 05°38' E 000°01'0 0.0
2017-Sep-07 11:29N 05°38' E 000°01'0 0.0
2017-Sep-07 10:59N 05°38' E 000°01'0 0.0
2017-Sep-07 10:29N 05°38' E 000°01'0 0.0
2017-Sep-07 09:59N 05°38' E 000°01'0 0.0
2017-Sep-07 09:29N 05°38' E 000°01'0 0.0
2017-Sep-07 08:59N 05°38' E 000°01'0 0.0
2017-Sep-07 08:29N 05°38' E 000°01'0 0.0
2017-Sep-07 07:59N 05°38' E 000°01'0 0.0
2017-Sep-07 07:29N 05°38' E 000°01'0 0.0
2017-Sep-07 06:59N 05°38' E 000°01'0 0.0
2017-Sep-07 06:29N 05°38' E 000°01'0 0.0
2017-Sep-07 05:59N 05°38' E 000°01'0 0.2
2017-Sep-07 05:31N 05°38' E 000°01'0 0.5
2017-Sep-07 05:00N 05°38' E 000°01'0 0.0
2017-Sep-07 04:30N 05°38' E 000°01'0 0.0
2017-Sep-07 04:00N 05°38' E 000°01'0 0.0
2017-Sep-07 03:30N 05°38' E 000°01'0 0.0
2017-Sep-07 03:00N 05°38' E 000°01'0 0.0
2017-Sep-07 02:30N 05°38' E 000°01'0 0.0
2017-Sep-07 02:00N 05°38' E 000°01'0 0.0
2017-Sep-07 01:30N 05°38' E 000°01'0 0.0
2017-Sep-07 01:00N 05°38' E 000°01'0 0.0
2017-Sep-07 00:30N 05°38' E 000°01'0 0.0
2017-Sep-07 00:00N 05°38' E 000°01'0 0.0
2017-Sep-06 23:30N 05°38' E 000°01'0 0.0
2017-Sep-06 23:00N 05°38' E 000°01'0 0.0
2017-Sep-06 22:30N 05°38' E 000°01'0 0.0
2017-Sep-06 22:00N 05°38' E 000°01'0 0.0
2017-Sep-06 21:30N 05°38' E 000°01'0 0.0
2017-Sep-06 21:00N 05°38' E 000°01'0 0.0
2017-Sep-06 20:30N 05°38' E 000°01'0 0.0
2017-Sep-06 20:00N 05°38' E 000°01'0 0.0
2017-Sep-06 19:27N 05°38' E 000°01'0 0.0
2017-Sep-06 19:00N 05°38' E 000°01'0 0.0
2017-Sep-06 18:30N 05°38' E 000°01'0 0.0
2017-Sep-06 18:00N 05°38' E 000°01'0 0.0
2017-Sep-06 17:30N 05°38' E 000°01'0 0.0
2017-Sep-06 17:00N 05°38' E 000°01'0 0.0
2017-Sep-06 16:30N 05°38' E 000°01'0 0.0
2017-Sep-06 16:00N 05°38' E 000°01'0 0.0
2017-Sep-06 15:30N 05°38' E 000°01'0 0.0
2017-Sep-06 15:00N 05°38' E 000°01'0 0.0
2017-Sep-06 14:30N 05°38' E 000°01'0 0.0
2017-Sep-06 14:00N 05°38' E 000°01'0 0.0
2017-Sep-06 13:30N 05°38' E 000°01'0 0.0
2017-Sep-06 13:00N 05°38' E 000°01'0 0.0
2017-Sep-06 12:30N 05°38' E 000°01'0 0.0
2017-Sep-06 12:00N 05°38' E 000°01'0 0.0
2017-Sep-06 11:30N 05°38' E 000°01'0 0.0
2017-Sep-06 11:00N 05°38' E 000°01'0 0.0
2017-Sep-06 10:30N 05°38' E 000°01'0 0.0
2017-Sep-06 10:00N 05°38' E 000°01'0 0.0
2017-Sep-06 09:30N 05°38' E 000°01'0 0.0
2017-Sep-06 09:00N 05°38' E 000°01'0 0.0
2017-Sep-06 08:30N 05°38' E 000°01'0 0.0
2017-Sep-06 08:00N 05°38' E 000°01'0 0.0
2017-Sep-06 07:30N 05°38' E 000°01'0 0.0
2017-Sep-06 07:00N 05°38' E 000°01'0 0.0
2017-Sep-06 06:30N 05°38' E 000°01'0 0.0
2017-Sep-06 06:00N 05°38' E 000°01'0 0.0
2017-Sep-06 05:30N 05°38' E 000°01'0 0.0
2017-Sep-06 05:00N 05°38' E 000°01'0 0.0
2017-Sep-06 04:30N 05°38' E 000°01'0 0.0
2017-Sep-06 04:00N 05°38' E 000°01'0 0.0
2017-Sep-06 03:30N 05°38' E 000°01'0 0.0
2017-Sep-06 03:00N 05°38' E 000°01'0 0.0
2017-Sep-06 02:30N 05°38' E 000°01'0 0.0
2017-Sep-06 02:00N 05°38' E 000°01'0 0.0
2017-Sep-06 01:31N 05°38' E 000°01'1 1.2
2017-Sep-06 01:00N 05°38' E 000°01'2 3.7
2017-Sep-06 00:30N 05°37' E 000°03'4 7.6
2017-Sep-06 00:00N 05°33' E 000°04'5 9.4
2017-Sep-05 23:30N 05°29' E 000°04'612.3
2017-Sep-05 23:00N 05°25' W 000°01'612.7
2017-Sep-05 22:31N 05°22' W 000°07'612.8
2017-Sep-05 22:00N 05°18' W 000°12'  
Track history (hours):
 
Tides and Currents Weather Stations Pressure Air Temp Water Temp Dewpoint Dewpoint Depression Visibility Wind Speed Wind Dir Waves Ship Positions

Grand Breaker

Last reported at 2017-Sep-13 21:29 UTC. Time now 2017-Sep-25 06:20 UTC.
Position N 03°57' W 002°49'.
Warning: this ship's position is 11 days out of date.

Length 190 m; draft 6.9 m.

Type: Cargo ship. MMSI: 538004469.

Date/timePositionNaut miles runAvg speedWind from/ knotsBaromVisibWave heightAir tempDewpointWater temp
2017-Sep-13 21:29N 03°57' W 002°49'510.8
2017-Sep-13 20:59N 03°59' W 002°44'611.5
2017-Sep-13 20:29N 04°03' W 002°39'611.6
2017-Sep-13 20:00N 04°06' W 002°35'611.7
2017-Sep-13 19:31N 04°10' W 002°31'612.1
2017-Sep-13 19:00N 04°14' W 002°26'612.1
2017-Sep-13 18:30N 04°18' W 002°21'  
2017-Sep-11 00:35N 04°53' W 001°44'0 0.0
2017-Sep-11 00:17N 04°53' W 001°44'0 0.0
2017-Sep-10 23:20N 04°53' W 001°44'0 0.0
2017-Sep-10 19:44N 04°53' W 001°44'0 0.0
2017-Sep-10 19:20N 04°53' W 001°44'0 0.0
2017-Sep-09 17:40N 04°53' W 001°44'0 0.0
2017-Sep-09 17:29N 04°53' W 001°44'0 0.7
2017-Sep-09 16:57N 04°53' W 001°44'1 2.8
2017-Sep-09 16:30N 04°54' W 001°43'2 5.0
2017-Sep-09 16:00N 04°55' W 001°41'3 6.7
2017-Sep-09 15:30N 04°53' W 001°38'4 7.4
2017-Sep-09 15:00N 04°51' W 001°35'510.2
2017-Sep-09 14:29N 04°50' W 001°30'713.3
2017-Sep-09 13:59N 04°51' W 001°23'613.3
2017-Sep-09 13:30N 04°52' W 001°17'713.3
2017-Sep-09 12:59N 04°54' W 001°10'6213.4
2017-Sep-09 08:20N 05°16' W 000°12'513.6
2017-Sep-09 08:01N 05°19' W 000°08'713.4
2017-Sep-09 07:30N 05°23' W 000°03'713.1
2017-Sep-09 07:00N 05°26' E 000°03'510.6
2017-Sep-09 06:30N 05°31' E 000°06'1 1.9
2017-Sep-09 05:59N 05°31' E 000°07'0 0.9
2017-Sep-09 05:29N 05°31' E 000°07'0 0.9
2017-Sep-09 04:59N 05°30' E 000°07'0 0.4
2017-Sep-09 04:29N 05°30' E 000°07'1 2.1
2017-Sep-09 04:00N 05°31' E 000°06'3 5.8
2017-Sep-09 03:30N 05°34' E 000°06'3 6.3
2017-Sep-09 03:00N 05°36' E 000°03'3 5.3
2017-Sep-09 02:30N 05°38' E 000°01'0 0.6
2017-Sep-09 01:59N 05°38' E 000°01'0 0.0
2017-Sep-09 01:29N 05°38' E 000°01'0 0.0
2017-Sep-09 00:59N 05°38' E 000°01'0 0.0
2017-Sep-09 00:29N 05°38' E 000°01'0 0.0
2017-Sep-08 23:59N 05°38' E 000°01'0 0.0
2017-Sep-08 23:29N 05°38' E 000°01'0 0.0
2017-Sep-08 22:59N 05°38' E 000°01'0 0.0
2017-Sep-08 22:29N 05°38' E 000°01'0 0.0
2017-Sep-08 21:59N 05°38' E 000°01'0 0.0
2017-Sep-08 21:29N 05°38' E 000°01'0 0.0
2017-Sep-08 20:59N 05°38' E 000°01'0 0.0
2017-Sep-08 20:29N 05°38' E 000°01'0 0.0
2017-Sep-08 19:59N 05°38' E 000°01'0 0.0
2017-Sep-08 19:29N 05°38' E 000°01'0 0.0
2017-Sep-08 18:59N 05°38' E 000°01'0 0.0
2017-Sep-08 18:29N 05°38' E 000°01'0 0.0
2017-Sep-08 17:59N 05°38' E 000°01'0 0.0
2017-Sep-08 17:29N 05°38' E 000°01'0 0.0
2017-Sep-08 16:59N 05°38' E 000°01'0 0.0
2017-Sep-08 16:29N 05°38' E 000°01'0 0.0
2017-Sep-08 15:59N 05°38' E 000°01'0 0.0
2017-Sep-08 15:29N 05°38' E 000°01'0 0.0
2017-Sep-08 14:56N 05°38' E 000°01'0 0.0
2017-Sep-08 14:29N 05°38' E 000°01'0 0.0
2017-Sep-08 13:59N 05°38' E 000°01'0 0.0
2017-Sep-08 13:29N 05°38' E 000°01'0 0.0
2017-Sep-08 12:32N 05°38' E 000°01'0 0.0
2017-Sep-08 12:29N 05°38' E 000°01'0 0.0
2017-Sep-08 11:59N 05°38' E 000°01'0 0.0
2017-Sep-08 11:29N 05°38' E 000°01'0 0.0
2017-Sep-08 10:59N 05°38' E 000°01'0 0.0
2017-Sep-08 10:29N 05°38' E 000°01'0 0.0
2017-Sep-08 09:59N 05°38' E 000°01'0 0.0
2017-Sep-08 09:29N 05°38' E 000°01'0 0.0
2017-Sep-08 08:59N 05°38' E 000°01'0 0.0
2017-Sep-08 08:29N 05°38' E 000°01'0 0.0
2017-Sep-08 07:59N 05°38' E 000°01'0 0.0
2017-Sep-08 07:29N 05°38' E 000°01'0 0.0
2017-Sep-08 06:59N 05°38' E 000°01'0 0.0
2017-Sep-08 06:29N 05°38' E 000°01'0 0.0
2017-Sep-08 05:59N 05°38' E 000°01'0 0.0
2017-Sep-08 05:29N 05°38' E 000°01'0 0.0
2017-Sep-08 04:59N 05°38' E 000°01'0 0.0
2017-Sep-08 04:29N 05°38' E 000°01'0 0.0
2017-Sep-08 03:59N 05°38' E 000°01'0 0.0
2017-Sep-08 03:29N 05°38' E 000°01'0 0.0
2017-Sep-08 02:59N 05°38' E 000°01'0 0.0
2017-Sep-08 02:29N 05°38' E 000°01'0 0.0
2017-Sep-08 01:59N 05°38' E 000°01'0 0.0
2017-Sep-08 01:29N 05°38' E 000°01'0 0.0
2017-Sep-08 00:59N 05°38' E 000°01'0 0.0
2017-Sep-08 00:29N 05°38' E 000°01'0 0.0
2017-Sep-07 23:59N 05°38' E 000°01'0 0.0
2017-Sep-07 23:26N 05°38' E 000°01'0 0.0
2017-Sep-07 22:59N 05°38' E 000°01'0 0.0
2017-Sep-07 22:29N 05°38' E 000°01'0 0.0
2017-Sep-07 21:59N 05°38' E 000°01'0 0.0
2017-Sep-07 21:29N 05°38' E 000°01'0 0.0
2017-Sep-07 20:59N 05°38' E 000°01'0 0.0
2017-Sep-07 20:29N 05°38' E 000°01'0 0.0
2017-Sep-07 19:59N 05°38' E 000°01'0 0.0
2017-Sep-07 19:29N 05°38' E 000°01'0 0.0
2017-Sep-07 18:59N 05°38' E 000°01'0 0.0
2017-Sep-07 18:29N 05°38' E 000°01'0 0.0
2017-Sep-07 17:59N 05°38' E 000°01'0 0.0
2017-Sep-07 17:29N 05°38' E 000°01'0 0.0
2017-Sep-07 16:59N 05°38' E 000°01'0 0.0
2017-Sep-07 16:29N 05°38' E 000°01'0 0.0
2017-Sep-07 15:59N 05°38' E 000°01'0 0.0
2017-Sep-07 15:29N 05°38' E 000°01'0 0.0
2017-Sep-07 14:59N 05°38' E 000°01'0 0.0
2017-Sep-07 14:29N 05°38' E 000°01'0 0.0
2017-Sep-07 13:56N 05°38' E 000°01'0 0.0
2017-Sep-07 13:29N 05°38' E 000°01'0 0.0
2017-Sep-07 12:59N 05°38' E 000°01'0 0.0
2017-Sep-07 12:29N 05°38' E 000°01'0 0.0
2017-Sep-07 11:59N 05°38' E 000°01'0 0.0
2017-Sep-07 11:29N 05°38' E 000°01'0 0.0
2017-Sep-07 10:59N 05°38' E 000°01'0 0.0
2017-Sep-07 10:29N 05°38' E 000°01'0 0.0
2017-Sep-07 09:59N 05°38' E 000°01'0 0.0
2017-Sep-07 09:29N 05°38' E 000°01'0 0.0
2017-Sep-07 08:59N 05°38' E 000°01'0 0.0
2017-Sep-07 08:29N 05°38' E 000°01'0 0.0
2017-Sep-07 07:59N 05°38' E 000°01'0 0.0
2017-Sep-07 07:29N 05°38' E 000°01'0 0.0
2017-Sep-07 06:59N 05°38' E 000°01'0 0.0
2017-Sep-07 06:29N 05°38' E 000°01'0 0.0
2017-Sep-07 05:59N 05°38' E 000°01'0 0.2
2017-Sep-07 05:31N 05°38' E 000°01'0 0.5
2017-Sep-07 05:00N 05°38' E 000°01'0 0.0
2017-Sep-07 04:30N 05°38' E 000°01'0 0.0
2017-Sep-07 04:00N 05°38' E 000°01'0 0.0
2017-Sep-07 03:30N 05°38' E 000°01'0 0.0
2017-Sep-07 03:00N 05°38' E 000°01'0 0.0
2017-Sep-07 02:30N 05°38' E 000°01'0 0.0
2017-Sep-07 02:00N 05°38' E 000°01'0 0.0
2017-Sep-07 01:30N 05°38' E 000°01'0 0.0
2017-Sep-07 01:00N 05°38' E 000°01'0 0.0
2017-Sep-07 00:30N 05°38' E 000°01'0 0.0
2017-Sep-07 00:00N 05°38' E 000°01'0 0.0
2017-Sep-06 23:30N 05°38' E 000°01'0 0.0
2017-Sep-06 23:00N 05°38' E 000°01'0 0.0
2017-Sep-06 22:30N 05°38' E 000°01'0 0.0
2017-Sep-06 22:00N 05°38' E 000°01'0 0.0
2017-Sep-06 21:30N 05°38' E 000°01'0 0.0
2017-Sep-06 21:00N 05°38' E 000°01'0 0.0
2017-Sep-06 20:30N 05°38' E 000°01'0 0.0
2017-Sep-06 20:00N 05°38' E 000°01'0 0.0
2017-Sep-06 19:27N 05°38' E 000°01'0 0.0
2017-Sep-06 19:00N 05°38' E 000°01'0 0.0
2017-Sep-06 18:30N 05°38' E 000°01'0 0.0
2017-Sep-06 18:00N 05°38' E 000°01'0 0.0
2017-Sep-06 17:30N 05°38' E 000°01'0 0.0
2017-Sep-06 17:00N 05°38' E 000°01'0 0.0
2017-Sep-06 16:30N 05°38' E 000°01'0 0.0
2017-Sep-06 16:00N 05°38' E 000°01'0 0.0
2017-Sep-06 15:30N 05°38' E 000°01'0 0.0
2017-Sep-06 15:00N 05°38' E 000°01'0 0.0
2017-Sep-06 14:30N 05°38' E 000°01'0 0.0
2017-Sep-06 14:00N 05°38' E 000°01'0 0.0
2017-Sep-06 13:30N 05°38' E 000°01'0 0.0
2017-Sep-06 13:00N 05°38' E 000°01'0 0.0
2017-Sep-06 12:30N 05°38' E 000°01'0 0.0
2017-Sep-06 12:00N 05°38' E 000°01'0 0.0
2017-Sep-06 11:30N 05°38' E 000°01'0 0.0
2017-Sep-06 11:00N 05°38' E 000°01'0 0.0
2017-Sep-06 10:30N 05°38' E 000°01'0 0.0
2017-Sep-06 10:00N 05°38' E 000°01'0 0.0
2017-Sep-06 09:30N 05°38' E 000°01'0 0.0
2017-Sep-06 09:00N 05°38' E 000°01'0 0.0
2017-Sep-06 08:30N 05°38' E 000°01'0 0.0
2017-Sep-06 08:00N 05°38' E 000°01'0 0.0
2017-Sep-06 07:30N 05°38' E 000°01'0 0.0
2017-Sep-06 07:00N 05°38' E 000°01'0 0.0
2017-Sep-06 06:30N 05°38' E 000°01'0 0.0
2017-Sep-06 06:00N 05°38' E 000°01'0 0.0
2017-Sep-06 05:30N 05°38' E 000°01'0 0.0
2017-Sep-06 05:00N 05°38' E 000°01'0 0.0
2017-Sep-06 04:30N 05°38' E 000°01'0 0.0
2017-Sep-06 04:00N 05°38' E 000°01'0 0.0
2017-Sep-06 03:30N 05°38' E 000°01'0 0.0
2017-Sep-06 03:00N 05°38' E 000°01'0 0.0
2017-Sep-06 02:30N 05°38' E 000°01'0 0.0
2017-Sep-06 02:00N 05°38' E 000°01'0 0.0
2017-Sep-06 01:31N 05°38' E 000°01'1 1.2
2017-Sep-06 01:00N 05°38' E 000°01'2 3.7
2017-Sep-06 00:30N 05°37' E 000°03'4 7.6
2017-Sep-06 00:00N 05°33' E 000°04'5 9.4
2017-Sep-05 23:30N 05°29' E 000°04'612.3
2017-Sep-05 23:00N 05°25' W 000°01'612.7
2017-Sep-05 22:31N 05°22' W 000°07'612.8
2017-Sep-05 22:00N 05°18' W 000°12'  

Dump ship's entire track history